Time;durP1;ratioP1;P1;durP2;ratioP2;P2;SDS_P1;SDS_P2;PMS_P1;PMS_P2;Temp;Humidity;BMP_temperature;BMP_pressure;BME280_temperature;BME280_humidity;BME280_pressure;Samples;Min_cycle;Max_cycle;Signal;HPM_P1;HPM_P2
2022/04/07 00:01:45;;;;;;;3.30;3.10;;;;;;;8.43;100.00;99307.84;5186617;28;20081;-82
2022/04/07 00:04:15;;;;;;;5.93;3.85;;;;;;;8.72;100.00;99336.72;5185531;28;20021;-82
2022/04/07 00:06:46;;;;;;;3.78;3.40;;;;;;;8.63;100.00;99323.06;5186017;28;20037;-82
2022/04/07 00:09:16;;;;;;;4.47;4.10;;;;;;;8.52;100.00;99299.19;5169339;28;20026;-81
2022/04/07 00:11:47;;;;;;;3.33;3.22;;;;;;;8.66;100.00;99327.84;5186075;28;20029;-84
2022/04/07 00:17:44;;;;;;;3.60;3.30;;;;;;;8.53;100.00;99298.13;5186744;28;20076;-83
2022/04/07 00:20:14;;;;;;;5.18;3.22;;;;;;;8.72;100.00;99315.97;5184452;28;20049;-82
2022/04/07 00:22:45;;;;;;;3.80;3.50;;;;;;;8.59;100.00;99283.53;5190530;28;20029;-82
2022/04/07 00:25:15;;;;;;;2.80;2.70;;;;;;;8.65;100.00;99291.31;5189526;28;20045;-82
2022/04/07 00:27:46;;;;;;;7.95;5.78;;;;;;;8.50;100.00;99259.13;5207169;28;20057;-81
2022/04/07 00:30:20;;;;;;;10.88;4.15;;;;;;;8.73;100.00;99271.84;5207380;28;20064;-83
2022/04/07 00:32:50;;;;;;;5.50;3.63;;;;;;;8.80;100.00;99288.47;5188613;28;20018;-82
2022/04/07 00:35:22;;;;;;;5.43;3.38;;;;;;;8.62;100.00;99248.00;5189445;28;20098;-82
2022/04/07 00:37:53;;;;;;;4.28;3.85;;;;;;;8.43;100.00;99232.53;5207716;28;20116;-82
2022/04/07 00:40:23;;;;;;;8.20;4.28;;;;;;;8.74;100.00;99286.91;5207290;28;20021;-81
2022/04/07 00:42:54;;;;;;;3.75;3.45;;;;;;;8.48;100.00;99266.66;5208233;28;20061;-85
2022/04/07 00:45:24;;;;;;;4.75;3.72;;;;;;;8.52;100.00;99266.91;5198275;28;20021;-80
2022/04/07 00:47:54;;;;;;;4.78;3.53;;;;;;;8.46;100.00;99261.56;5230721;28;20044;-81
2022/04/07 00:50:25;;;;;;;17.25;5.80;;;;;;;8.49;100.00;99279.03;5231039;28;20028;-81
2022/04/07 00:52:58;;;;;;;3.65;3.50;;;;;;;8.45;100.00;99253.78;5213593;28;20028;-81
2022/04/07 00:55:29;;;;;;;7.68;4.43;;;;;;;8.45;100.00;99251.09;5228944;28;20018;-82
2022/04/07 00:58:01;;;;;;;4.30;4.00;;;;;;;8.37;100.00;99235.56;5219199;28;20105;-83
2022/04/07 01:00:31;;;;;;;4.43;4.05;;;;;;;8.26;100.00;99207.09;5191806;28;20107;-85
2022/04/07 01:03:01;;;;;;;3.67;3.45;;;;;;;8.49;100.00;99243.25;5211220;28;20056;-85
2022/04/07 01:05:32;;;;;;;4.47;4.05;;;;;;;8.45;100.00;99237.63;5211438;28;20400;-84
2022/04/07 01:08:03;;;;;;;5.15;4.45;;;;;;;8.17;100.00;99168.44;5194060;28;20033;-84
2022/04/07 01:10:33;;;;;;;6.95;4.07;;;;;;;8.17;100.00;99169.25;5209016;28;20104;-84
2022/04/07 01:13:04;;;;;;;8.52;5.32;;;;;;;8.59;100.00;99227.03;5210122;28;20088;-86
2022/04/07 01:15:34;;;;;;;4.38;2.72;;;;;;;8.60;100.00;99209.81;5192198;28;20030;-84
2022/04/07 01:18:05;;;;;;;5.72;4.15;;;;;;;7.98;100.00;99115.38;5211389;28;20014;-85
2022/04/07 01:20:37;;;;;;;3.92;3.67;;;;;;;8.28;100.00;99176.16;5211095;28;20033;-85
2022/04/07 01:23:08;;;;;;;4.45;4.05;;;;;;;8.45;100.00;99203.47;5210638;28;20025;-83
2022/04/07 01:25:38;;;;;;;5.25;3.60;;;;;;;8.30;100.00;99167.81;5210606;28;20025;-85
2022/04/07 01:28:09;;;;;;;11.57;5.03;;;;;;;8.28;100.00;99169.97;5210001;28;20026;-86
2022/04/07 01:30:39;;;;;;;5.53;5.05;;;;;;;8.40;100.00;99195.44;5208843;28;20021;-83
2022/04/07 01:33:12;;;;;;;9.07;3.75;;;;;;;8.15;100.00;99149.91;5208540;28;20080;-84
2022/04/07 01:35:42;;;;;;;3.08;2.88;;;;;;;8.45;100.00;99186.53;5191698;28;20119;-84
2022/04/07 01:45:00;;;;;;;5.30;4.68;;;;;;;8.20;100.00;99103.34;5267957;23;20044;-91
2022/04/07 01:47:33;;;;;;;5.43;4.35;;;;;;;8.36;100.00;99135.25;5262770;28;20487;-92
2022/04/07 01:50:10;;;;;;;3.72;3.38;;;;;;;8.48;100.00;99118.72;5272951;28;20036;-91
2022/04/07 01:52:41;;;;;;;7.63;4.93;;;;;;;7.51;100.00;98952.13;5265381;28;20027;-92
2022/04/07 01:55:13;;;;;;;5.40;3.08;;;;;;;8.60;100.00;99123.72;5234122;28;20111;-91
2022/04/07 01:57:45;;;;;;;7.65;4.57;;;;;;;7.77;100.00;99001.09;5251607;28;20021;-91
2022/04/07 02:00:15;;;;;;;3.85;3.55;;;;;;;8.86;100.00;99133.13;5234798;28;20056;-92
2022/04/07 02:02:46;;;;;;;5.65;4.15;;;;;;;8.77;100.00;99141.00;5251708;28;20056;-92
2022/04/07 02:05:16;;;;;;;3.75;3.42;;;;;;;8.86;100.00;99143.06;5234068;28;20085;-91
2022/04/07 02:07:47;;;;;;;7.60;3.88;;;;;;;8.97;100.00;99133.78;5233761;28;20025;-92
2022/04/07 02:10:18;;;;;;;3.65;3.35;;;;;;;7.96;100.00;98979.66;5233902;28;20518;-92
2022/04/07 02:12:49;;;;;;;7.85;4.55;;;;;;;8.33;100.00;98997.84;5237142;28;20017;-92
2022/04/07 02:15:19;;;;;;;4.20;3.80;;;;;;;9.01;100.00;99148.28;5257235;28;20118;-92
2022/04/07 02:17:50;;;;;;;6.32;4.95;;;;;;;7.49;100.00;98900.63;5254302;28;20021;-91
2022/04/07 02:20:20;;;;;;;4.35;4.00;;;;;;;8.33;100.00;98995.16;5255954;28;20144;-92
2022/04/07 02:22:52;;;;;;;7.57;4.88;;;;;;;8.89;100.00;99092.16;5317824;22;20008;-78
2022/04/07 02:25:27;;;;;;;3.75;2.95;;;;;;;8.69;100.00;99079.72;5215597;28;20048;-79
2022/04/07 02:27:58;;;;;;;5.88;3.42;;;;;;;8.76;100.00;99074.00;5225040;28;20022;-80
2022/04/07 02:30:29;;;;;;;3.85;3.65;;;;;;;8.69;100.00;99058.19;5207347;28;20055;-79
2022/04/07 02:32:59;;;;;;;8.60;3.88;;;;;;;8.76;100.00;99069.44;5225030;28;20029;-79
2022/04/07 02:35:29;;;;;;;5.75;5.30;;;;;;;8.64;100.00;99062.88;5224660;28;20036;-79
2022/04/07 02:38:00;;;;;;;3.42;3.22;;;;;;;8.92;100.00;99080.03;5224653;28;20022;-80
2022/04/07 02:40:31;;;;;;;5.95;3.90;;;;;;;8.82;100.00;99050.53;5224659;28;20298;-79
2022/04/07 02:43:01;;;;;;;6.25;4.53;;;;;;;8.87;100.00;99063.94;5224994;28;20025;-80
2022/04/07 02:45:32;;;;;;;8.55;3.75;;;;;;;9.01;100.00;99086.34;5206174;28;20029;-78
2022/04/07 02:48:02;;;;;;;7.35;3.30;;;;;;;8.99;100.00;99058.91;5223616;28;20013;-80
2022/04/07 02:50:33;;;;;;;6.43;4.53;;;;;;;8.74;100.00;99039.31;5224221;28;20056;-80
2022/04/07 02:53:03;;;;;;;7.18;4.93;;;;;;;9.09;100.00;99064.16;5207749;28;20285;-80
2022/04/07 02:55:33;;;;;;;5.55;4.43;;;;;;;9.08;100.00;99044.53;5227871;28;20026;-81
2022/04/07 02:58:04;;;;;;;5.90;3.78;;;;;;;8.98;100.00;99030.38;5210379;28;20033;-78
2022/04/07 03:00:34;;;;;;;6.28;5.15;;;;;;;9.07;100.00;99034.03;5230039;28;20023;-78
2022/04/07 03:03:05;;;;;;;4.35;4.05;;;;;;;8.85;100.00;98994.22;5228722;28;20009;-78
2022/04/07 03:05:35;;;;;;;7.80;4.50;;;;;;;8.88;100.00;98979.41;5229694;28;20033;-79
2022/04/07 03:08:06;;;;;;;9.68;4.25;;;;;;;9.03;100.00;99000.69;5230255;28;20010;-79
2022/04/07 03:10:36;;;;;;;5.43;4.93;;;;;;;8.98;100.00;99015.03;5229863;28;20089;-79
2022/04/07 03:13:07;;;;;;;4.93;3.35;;;;;;;9.05;100.00;99004.72;5229216;28;20057;-80
2022/04/07 03:15:37;;;;;;;3.17;3.00;;;;;;;8.91;100.00;98979.63;5212168;28;20045;-80
2022/04/07 03:18:08;;;;;;;5.88;4.07;;;;;;;9.01;100.00;99006.38;5229545;28;20037;-80
2022/04/07 03:20:38;;;;;;;3.60;3.28;;;;;;;8.79;100.00;98971.97;5228685;28;20017;-80
2022/04/07 03:23:09;;;;;;;10.18;4.35;;;;;;;8.88;100.00;98971.31;5228878;28;20254;-81
2022/04/07 03:25:40;;;;;;;3.03;2.83;;;;;;;8.98;100.00;98984.63;5229684;28;20044;-79
2022/04/07 03:28:10;;;;;;;5.95;4.55;;;;;;;8.89;100.00;98970.22;5212669;28;20034;-79
2022/04/07 03:30:41;;;;;;;7.78;3.80;;;;;;;8.92;100.00;98972.34;5212077;28;20033;-79
2022/04/07 03:33:11;;;;;;;6.22;3.83;;;;;;;9.01;100.00;98979.47;5228469;28;20029;-79
2022/04/07 03:35:42;;;;;;;8.43;3.28;;;;;;;8.96;100.00;98982.22;5211632;28;20048;-81
2022/04/07 03:38:13;;;;;;;6.72;3.47;;;;;;;8.99;100.00;98954.72;5211981;28;20021;-79
2022/04/07 03:40:43;;;;;;;12.90;3.50;;;;;;;8.76;100.00;98926.78;5212122;28;20033;-78
2022/04/07 03:43:14;;;;;;;6.75;4.00;;;;;;;8.95;100.00;98934.06;5212463;28;20025;-78
2022/04/07 03:45:44;;;;;;;2.58;2.47;;;;;;;8.85;100.00;98926.13;5228868;28;20041;-79
2022/04/07 03:48:15;;;;;;;3.90;3.60;;;;;;;9.00;100.00;98940.16;5227306;28;20025;-81
2022/04/07 03:50:45;;;;;;;5.47;3.28;;;;;;;9.05;100.00;98933.91;5224490;28;20535;-79
2022/04/07 03:53:16;;;;;;;9.57;3.50;;;;;;;8.99;100.00;98910.84;5222498;28;20036;-80
2022/04/07 03:55:46;;;;;;;3.55;3.25;;;;;;;9.02;100.00;98902.19;5226531;28;20067;-80
2022/04/07 03:58:16;;;;;;;3.17;3.03;;;;;;;9.04;100.00;98903.50;5210520;28;20021;-79
2022/04/07 04:00:47;;;;;;;6.85;3.00;;;;;;;9.10;100.00;98894.25;5210812;28;20175;-79
2022/04/07 04:03:17;;;;;;;3.03;2.63;;;;;;;9.01;100.00;98890.59;5207834;28;20029;-80
2022/04/07 04:05:48;;;;;;;3.20;3.10;;;;;;;9.11;100.00;98881.56;5205908;28;20040;-79
2022/04/07 04:08:18;;;;;;;2.65;2.50;;;;;;;8.89;100.00;98847.22;5221285;28;20021;-78
2022/04/07 04:10:49;;;;;;;3.35;3.15;;;;;;;8.73;100.00;98822.41;5204578;28;20029;-81
2022/04/07 04:13:20;;;;;;;3.67;3.47;;;;;;;8.96;100.00;98873.72;5220681;28;20060;-79
2022/04/07 04:15:50;;;;;;;3.72;2.90;;;;;;;8.83;100.00;98880.69;5219485;28;20160;-81
2022/04/07 04:18:20;;;;;;;4.55;3.38;;;;;;;8.76;100.00;98864.91;5221321;28;20029;-81
2022/04/07 04:20:51;;;;;;;5.45;3.00;;;;;;;8.71;100.00;98867.66;5204427;28;20025;-79
2022/04/07 04:23:21;;;;;;;3.95;3.00;;;;;;;8.62;100.00;98839.84;5203616;28;20033;-78
2022/04/07 04:25:52;;;;;;;3.08;2.97;;;;;;;8.63;100.00;98838.75;5222613;28;20032;-81
2022/04/07 04:28:22;;;;;;;3.00;2.63;;;;;;;8.62;100.00;98830.97;5221808;28;20013;-80
2022/04/07 04:30:53;;;;;;;4.93;3.17;;;;;;;8.50;100.00;98795.63;5204875;28;20037;-82
2022/04/07 04:33:23;;;;;;;3.00;2.90;;;;;;;8.18;100.00;98764.06;5204083;28;20060;-81
2022/04/07 04:35:54;;;;;;;3.83;3.55;;;;;;;8.57;100.00;98818.38;5204570;28;20025;-79
2022/04/07 04:38:24;;;;;;;3.03;2.92;;;;;;;8.63;100.00;98827.19;5220464;28;20052;-79
2022/04/07 04:40:55;;;;;;;2.97;2.67;;;;;;;8.37;100.00;98787.19;5220717;28;20031;-81
2022/04/07 04:43:25;;;;;;;2.85;2.75;;;;;;;8.55;100.00;98803.63;5203227;28;20301;-82
2022/04/07 04:45:56;;;;;;;6.57;3.90;;;;;;;8.04;100.00;98707.56;5203899;28;20026;-80
2022/04/07 04:48:27;;;;;;;3.97;3.60;;;;;;;8.31;100.00;98750.69;5204916;28;20032;-80
2022/04/07 04:50:58;;;;;;;3.63;3.40;;;;;;;7.59;100.00;98655.28;5222140;28;20036;-80
2022/04/07 04:53:28;;;;;;;6.05;3.70;;;;;;;8.45;100.00;98783.84;5223105;28;20025;-81
2022/04/07 04:55:59;;;;;;;3.85;3.50;;;;;;;8.20;100.00;98743.06;5224302;28;20540;-79
2022/04/07 04:58:29;;;;;;;4.82;3.80;;;;;;;8.29;100.00;98765.53;5207299;28;20036;-81
2022/04/07 05:01:00;;;;;;;5.03;4.47;;;;;;;8.25;100.00;98741.09;5205683;28;20048;-80
2022/04/07 05:03:30;;;;;;;4.22;4.05;;;;;;;8.15;100.00;98741.25;5222255;28;20017;-82
2022/04/07 05:06:02;;;;;;;6.22;4.63;;;;;;;8.30;100.00;98748.31;5222189;28;20025;-80
2022/04/07 05:08:32;;;;;;;4.68;4.38;;;;;;;8.22;100.00;98728.25;5222258;28;20042;-80
2022/04/07 05:11:03;;;;;;;5.03;4.53;;;;;;;8.12;100.00;98704.19;5221647;28;20060;-80
2022/04/07 05:13:33;;;;;;;4.72;4.43;;;;;;;8.10;100.00;98695.63;5220436;28;20045;-80
2022/04/07 05:16:05;;;;;;;4.85;4.45;;;;;;;8.38;100.00;98718.06;5222127;28;20049;-79
2022/04/07 05:18:35;;;;;;;12.02;4.50;;;;;;;8.42;100.00;98721.78;5223639;28;20033;-81
2022/04/07 05:21:06;;;;;;;3.83;3.63;;;;;;;8.47;100.00;98708.25;5208549;28;20013;-81
2022/04/07 05:23:36;;;;;;;4.95;4.55;;;;;;;8.54;100.00;98683.66;5207365;28;20416;-80
2022/04/07 05:26:07;;;;;;;4.35;3.92;;;;;;;8.31;100.00;98643.13;5227986;28;20109;-80
2022/04/07 05:28:37;;;;;;;4.43;3.80;;;;;;;8.59;100.00;98670.91;5223309;28;20025;-81
2022/04/07 05:31:08;;;;;;;4.68;3.30;;;;;;;8.46;100.00;98655.53;5208342;28;20038;-81
2022/04/07 05:33:39;;;;;;;3.10;2.83;;;;;;;8.30;100.00;98603.91;5209051;28;20028;-81
2022/04/07 05:36:09;;;;;;;3.65;3.38;;;;;;;8.55;100.00;98626.06;5226739;28;20444;-81
2022/04/07 05:38:40;;;;;;;3.55;3.35;;;;;;;8.37;100.00;98576.66;5226571;28;20052;-81
2022/04/07 05:41:10;;;;;;;4.40;4.10;;;;;;;8.41;100.00;98591.06;5225556;28;20044;-81
2022/04/07 05:43:41;;;;;;;3.22;3.13;;;;;;;8.17;100.00;98542.81;5225542;28;20105;-81
2022/04/07 05:46:11;;;;;;;7.20;4.78;;;;;;;8.63;100.00;98599.28;5226653;28;20137;-81
2022/04/07 05:48:42;;;;;;;5.07;4.78;;;;;;;8.52;100.00;98579.03;5225918;28;20034;-78
2022/04/07 05:51:13;;;;;;;4.90;3.75;;;;;;;8.63;100.00;98628.09;5228580;28;20017;-80
2022/04/07 05:53:44;;;;;;;4.88;3.38;;;;;;;7.88;100.00;98510.00;5211721;28;20021;-81
2022/04/07 05:56:14;;;;;;;4.65;3.25;;;;;;;7.91;100.00;98483.34;5229022;28;20100;-81
2022/04/07 05:58:44;;;;;;;6.78;4.20;;;;;;;8.51;100.00;98598.97;5210141;28;20079;-81
2022/04/07 06:01:17;;;;;;;3.47;3.25;;;;;;;8.02;100.00;98497.41;5227354;28;20018;-81
2022/04/07 06:03:48;;;;;;;4.43;4.13;;;;;;;8.48;100.00;98569.19;5226694;28;20033;-81
2022/04/07 06:06:18;;;;;;;4.47;4.18;;;;;;;8.35;100.00;98555.44;5225699;28;20033;-81
2022/04/07 06:08:48;;;;;;;12.50;4.65;;;;;;;8.00;100.00;98486.97;5225258;28;20044;-80
2022/04/07 06:11:19;;;;;;;5.93;3.80;;;;;;;8.25;100.00;98552.09;5225587;28;20021;-81
2022/04/07 06:13:49;;;;;;;13.07;4.70;;;;;;;7.92;100.00;98521.78;5208985;28;20045;-80
2022/04/07 06:16:20;;;;;;;4.93;4.45;;;;;;;8.10;100.00;98540.50;5220733;28;20018;-81
2022/04/07 06:18:51;;;;;;;5.45;3.63;;;;;;;8.06;100.00;98525.28;5189386;28;20045;-81
2022/04/07 06:21:24;;;;;;;5.45;4.07;;;;;;;8.02;100.00;98522.41;5204363;28;20040;-80
2022/04/07 06:23:57;;;;;;;7.53;4.40;;;;;;;8.00;100.00;98515.72;5188105;28;20037;-82
2022/04/07 06:26:27;;;;;;;5.13;4.50;;;;;;;7.99;100.00;98495.31;5188110;28;20026;-83
2022/04/07 06:28:58;;;;;;;5.00;4.63;;;;;;;7.78;100.00;98462.66;5205154;28;20025;-81
2022/04/07 06:31:28;;;;;;;5.53;5.13;;;;;;;7.87;100.00;98465.44;5202872;28;20021;-81
2022/04/07 06:33:59;;;;;;;7.93;4.25;;;;;;;7.75;100.00;98433.69;5203073;28;20025;-82
2022/04/07 06:36:29;;;;;;;8.55;4.18;;;;;;;7.93;100.00;98438.19;5203452;28;20026;-84
2022/04/07 06:39:00;;;;;;;4.80;4.35;;;;;;;7.58;100.00;98361.72;5202831;28;20028;-81
2022/04/07 06:41:30;;;;;;;4.05;3.75;;;;;;;7.85;100.00;98395.06;5202961;28;20048;-83
2022/04/07 06:44:00;;;;;;;6.88;6.22;;;;;;;7.76;100.00;98379.66;5201584;28;20049;-78
2022/04/07 06:46:32;;;;;;;5.43;4.38;;;;;;;8.13;100.00;98412.78;5200981;28;20118;-82
2022/04/07 06:49:03;;;;;;;4.43;4.13;;;;;;;8.03;100.00;98373.50;5201689;28;20057;-80
2022/04/07 06:51:34;;;;;;;4.82;4.50;;;;;;;8.01;100.00;98375.69;5201104;28;20052;-83
2022/04/07 06:54:04;;;;;;;4.03;3.70;;;;;;;8.10;100.00;98395.34;5200578;28;20026;-80
2022/04/07 06:56:35;;;;;;;3.25;3.13;;;;;;;8.27;100.00;98400.13;5200580;28;20018;-81
2022/04/07 06:59:06;;;;;;;4.57;4.05;;;;;;;8.23;100.00;98377.63;5201311;28;20025;-80
2022/04/07 07:01:37;;;;;;;4.45;4.18;;;;;;;8.11;100.00;98339.72;5201329;28;20052;-81
2022/04/07 07:04:07;;;;;;;8.02;4.32;;;;;;;8.07;100.00;98306.50;5184485;28;20085;-82
2022/04/07 07:06:38;;;;;;;3.60;3.35;;;;;;;8.17;100.00;98310.84;5184891;28;20388;-79
2022/04/07 07:09:10;;;;;;;4.45;3.90;;;;;;;8.34;100.00;98324.47;5203035;28;20038;-78
2022/04/07 07:11:40;;;;;;;5.75;4.13;;;;;;;8.55;100.00;98339.06;5185216;28;20026;-80
2022/04/07 07:14:11;;;;;;;3.50;3.30;;;;;;;8.40;100.00;98282.91;5185395;28;20078;-80
2022/04/07 07:16:41;;;;;;;4.32;4.13;;;;;;;8.30;100.00;98265.09;5201204;28;20033;-80
2022/04/07 07:19:12;;;;;;;3.80;3.50;;;;;;;8.90;100.00;98342.00;5184986;28;20021;-80
2022/04/07 07:21:43;;;;;;;4.03;3.78;;;;;;;8.96;100.00;98363.09;5200070;28;20048;-79
2022/04/07 07:24:14;;;;;;;5.60;5.13;;;;;;;9.04;100.00;98330.06;5200652;28;20033;-81
2022/04/07 07:26:45;;;;;;;4.55;4.35;;;;;;;8.79;100.00;98260.72;5218339;28;20018;-81
2022/04/07 07:29:16;;;;;;;5.50;5.10;;;;;;;9.01;100.00;98308.34;5201034;28;20099;-82
2022/04/07 07:31:47;;;;;;;4.00;3.67;;;;;;;9.18;100.00;98310.34;5200011;28;20028;-82
2022/04/07 07:34:17;;;;;;;4.15;3.95;;;;;;;9.13;100.00;98320.13;5200193;28;20025;-79
2022/04/07 07:36:47;;;;;;;5.20;4.20;;;;;;;8.37;100.00;98192.13;5182807;28;20502;-81
2022/04/07 07:39:18;;;;;;;5.68;5.20;;;;;;;9.11;100.00;98294.63;5199157;28;20032;-81
2022/04/07 07:41:49;;;;;;;5.70;5.22;;;;;;;9.18;100.00;98284.22;5198249;28;20034;-81
2022/04/07 07:44:19;;;;;;;4.70;4.50;;;;;;;9.06;100.00;98302.81;5182781;28;20037;-80
2022/04/07 07:46:50;;;;;;;5.65;4.40;;;;;;;9.17;100.00;98395.72;5198055;28;20053;-80
2022/04/07 07:49:21;;;;;;;3.78;3.58;;;;;;;8.99;100.00;98423.59;5200840;28;20034;-82
2022/04/07 07:51:51;;;;;;;12.82;3.15;;;;;;;8.36;100.00;98446.78;5202560;28;20052;-78
2022/04/07 07:54:22;;;;;;;3.33;3.13;;;;;;;7.75;100.00;98431.00;5202960;28;20066;-79
2022/04/07 07:56:52;;;;;;;6.05;3.50;;;;;;;7.51;100.00;98443.78;5223348;28;20048;-82
2022/04/07 07:59:23;;;;;;;29.00;4.68;;;;;;;7.34;100.00;98412.09;5204277;28;20018;-81
2022/04/07 08:01:54;;;;;;;3.03;2.83;;;;;;;7.21;100.00;98437.84;5200080;28;20077;-79
2022/04/07 08:04:24;;;;;;;2.15;2.15;;;;;;;7.34;100.00;98442.44;5200809;28;20030;-79
2022/04/07 08:06:55;;;;;;;3.13;2.50;;;;;;;7.12;100.00;98399.31;5181249;28;20088;-78
2022/04/07 08:09:25;;;;;;;2.20;2.03;;;;;;;7.38;100.00;98431.91;5216267;28;20048;-78
2022/04/07 08:11:56;;;;;;;2.60;2.40;;;;;;;7.43;100.00;98427.25;5219913;28;20050;-80
2022/04/07 08:14:26;;;;;;;2.92;2.83;;;;;;;7.45;100.00;98403.59;5218553;28;20112;-81
2022/04/07 08:16:57;;;;;;;2.08;2.08;;;;;;;7.80;100.00;98420.13;5216736;28;20025;-81
2022/04/07 08:19:27;;;;;;;3.08;2.75;;;;;;;8.05;100.00;98419.69;5216282;28;20032;-81
2022/04/07 08:21:58;;;;;;;2.35;2.25;;;;;;;8.30;100.00;98412.19;5216772;28;20025;-80
2022/04/07 08:24:28;;;;;;;2.03;2.03;;;;;;;8.56;100.00;98424.03;5255448;23;20475;-63
2022/04/07 08:26:59;;;;;;;1.70;1.70;;;;;;;8.77;100.00;98427.84;5219153;28;20028;-63
2022/04/07 08:29:29;;;;;;;1.38;1.38;;;;;;;8.89;100.00;98443.47;5227202;28;20028;-62
2022/04/07 08:32:01;;;;;;;2.10;2.00;;;;;;;8.87;100.00;98434.13;5245639;28;20028;-63
2022/04/07 08:34:31;;;;;;;1.65;1.65;;;;;;;9.06;100.00;98429.34;5227413;28;20112;-64
2022/04/07 08:37:03;;;;;;;1.50;1.50;;;;;;;9.23;100.00;98431.41;5206990;28;20017;-62
2022/04/07 08:39:33;;;;;;;1.75;1.75;;;;;;;9.29;100.00;98438.22;5223388;28;20032;-64
2022/04/07 08:42:05;;;;;;;5.93;2.40;;;;;;;9.30;100.00;98437.94;5205841;28;20031;-63
2022/04/07 08:44:36;;;;;;;1.63;1.63;;;;;;;9.29;100.00;98433.63;5206514;28;20044;-64
2022/04/07 08:47:06;;;;;;;1.50;1.40;;;;;;;9.44;100.00;98443.25;5223682;28;20029;-64
2022/04/07 08:49:38;;;;;;;1.42;1.42;;;;;;;9.53;100.00;98440.63;5206775;28;20108;-64
2022/04/07 08:52:09;;;;;;;1.70;1.70;;;;;;;9.65;100.00;98454.31;5206462;28;20071;-64
2022/04/07 08:54:39;;;;;;;3.42;2.08;;;;;;;9.59;100.00;98440.16;5238450;23;20049;-91
2022/04/07 08:57:10;;;;;;;2.10;1.92;;;;;;;9.41;100.00;98376.53;5190575;28;20024;-92
2022/04/07 08:59:41;;;;;;;2.45;2.22;;;;;;;9.78;100.00;98423.78;5208266;28;20105;-92
2022/04/07 09:02:12;;;;;;;2.50;2.35;;;;;;;9.41;100.00;98355.78;5193300;28;20155;-92
2022/04/07 09:04:42;;;;;;;1.90;1.88;;;;;;;9.54;100.00;98389.09;5228566;28;20082;-90
2022/04/07 09:07:13;;;;;;;2.20;2.10;;;;;;;9.89;100.00;98421.59;5229900;28;20056;-91
2022/04/07 09:09:43;;;;;;;2.00;1.90;;;;;;;9.85;100.00;98404.47;5213623;28;20017;-93
2022/04/07 09:12:23;;;;;;;2.03;1.92;;;;;;;9.36;100.00;98347.81;5213765;28;20071;-91
2022/04/07 09:14:59;;;;;;;4.53;2.28;;;;;;;9.90;100.00;98421.28;5213212;28;20056;-92
2022/04/07 09:17:31;;;;;;;1.85;1.77;;;;;;;10.10;100.00;98434.25;5230228;28;20005;-91
2022/04/07 09:20:08;;;;;;;2.10;2.00;;;;;;;9.77;100.00;98355.63;5213392;28;20014;-91
2022/04/07 09:22:39;;;;;;;2.45;2.35;;;;;;;9.48;100.00;98315.72;5212601;28;20273;-93
2022/04/07 09:25:12;;;;;;;2.53;2.42;;;;;;;10.07;100.00;98370.16;5212931;28;20025;-92
2022/04/07 09:27:47;;;;;;;2.15;2.03;;;;;;;9.68;100.00;98308.97;5212247;28;20044;-93
2022/04/07 09:30:18;;;;;;;1.67;1.65;;;;;;;10.05;100.00;98350.78;5226272;28;20021;-92
2022/04/07 09:32:49;;;;;;;2.30;2.20;;;;;;;10.81;100.00;98447.59;5209460;28;20080;-93
2022/04/07 09:35:19;;;;;;;4.30;2.00;;;;;;;10.81;100.00;98464.59;5216352;28;20091;-93
2022/04/07 09:37:50;;;;;;;2.38;2.17;;;;;;;10.71;100.00;98462.19;5213523;28;20017;-93
2022/04/07 09:40:20;;;;;;;1.80;1.70;;;;;;;10.39;100.00;98431.03;5202027;28;20017;-93
2022/04/07 09:42:58;;;;;;;2.22;2.13;;;;;;;10.74;100.00;98469.66;5202374;23;20103;-66
2022/04/07 09:45:28;;;;;;;2.58;2.35;;;;;;;10.83;100.00;98483.97;5157779;28;20084;-67
2022/04/07 09:47:59;;;;;;;2.40;2.20;;;;;;;10.95;100.00;98480.66;5166037;28;20025;-67
2022/04/07 09:50:31;;;;;;;2.17;1.83;;;;;;;11.33;100.00;98488.13;5165712;28;20083;-66
2022/04/07 09:53:04;;;;;;;5.28;2.10;;;;;;;11.54;100.00;98475.56;5166004;28;20121;-67
2022/04/07 09:55:37;;;;;;;2.03;2.00;;;;;;;11.53;100.00;98508.31;5165767;28;20183;-66
2022/04/07 09:58:08;;;;;;;3.65;2.30;;;;;;;11.45;100.00;98475.56;5165830;28;20080;-67
2022/04/07 10:00:39;;;;;;;12.93;2.35;;;;;;;11.49;100.00;98479.22;5165829;28;20117;-67
2022/04/07 10:03:10;;;;;;;2.30;2.17;;;;;;;11.54;100.00;98472.88;5165733;28;20148;-67
2022/04/07 10:05:41;;;;;;;2.15;1.70;;;;;;;11.56;100.00;98475.22;5167027;28;20040;-67
2022/04/07 10:08:12;;;;;;;3.60;2.35;;;;;;;11.69;100.00;98482.38;5169296;28;20083;-67
2022/04/07 10:10:43;;;;;;;3.25;2.53;;;;;;;11.83;100.00;98483.03;5169824;28;20113;-67
2022/04/07 10:13:15;;;;;;;2.42;2.22;;;;;;;11.90;100.00;98493.31;5169527;28;20033;-67
2022/04/07 10:15:47;;;;;;;4.20;2.15;;;;;;;11.92;100.00;98486.47;5169135;28;20026;-67
2022/04/07 10:18:28;;;;;;;3.05;2.80;;;;;;;12.20;100.00;98499.59;5169332;28;20022;-66
2022/04/07 10:21:01;;;;;;;2.80;2.60;;;;;;;12.35;100.00;98502.56;5168935;28;20033;-67
2022/04/07 10:24:03;;;;;;;3.85;1.88;;;;;;;12.60;100.00;98500.84;5168853;28;20068;-67
2022/04/07 10:26:35;;;;;;;1.90;1.75;;;;;;;12.34;100.00;98500.97;5169088;28;20096;-67
2022/04/07 10:29:05;;;;;;;2.78;2.38;;;;;;;12.60;100.00;98508.97;5169074;28;20054;-67
2022/04/07 10:31:36;;;;;;;4.50;2.17;;;;;;;12.71;100.00;98496.63;5186466;28;20072;-67
2022/04/07 10:34:07;;;;;;;1.83;1.73;;;;;;;12.96;100.00;98496.81;5168759;28;20033;-66
2022/04/07 10:36:39;;;;;;;2.53;2.17;;;;;;;13.02;100.00;98522.56;5168727;28;20037;-65
2022/04/07 10:39:14;;;;;;;2.97;2.78;;;;;;;12.97;100.00;98511.97;5168824;28;20029;-66
2022/04/07 10:41:46;;;;;;;3.20;2.95;;;;;;;13.01;100.00;98523.69;5168637;28;20057;-67
2022/04/07 10:44:18;;;;;;;2.67;2.25;;;;;;;12.87;100.00;98529.38;5168441;28;20057;-68
2022/04/07 10:46:49;;;;;;;4.57;2.83;;;;;;;12.75;100.00;98532.78;5168310;28;20037;-67
2022/04/07 10:49:26;;;;;;;3.35;1.98;;;;;;;13.03;100.00;98516.03;5180883;28;20029;-68
2022/04/07 10:55:10;;;;;;;3.67;1.88;;;;;;;13.18;100.00;98526.34;5200446;28;20443;-67
2022/04/07 10:58:09;;;;;;;2.88;2.67;;;;;;;13.10;100.00;98540.69;5169403;28;20014;-69
2022/04/07 11:00:39;;;;;;;2.08;1.98;;;;;;;12.74;100.00;98544.72;5169173;28;20036;-67
2022/04/07 11:03:18;;;;;;;5.68;3.10;;;;;;;12.79;100.00;98522.88;5169333;28;20022;-66
2022/04/07 11:06:13;;;;;;;4.85;2.53;;;;;;;12.95;100.00;98544.00;5191756;23;20045;-64
2022/04/07 11:08:43;;;;;;;4.13;2.65;;;;;;;12.87;100.00;98509.63;5204415;28;20034;-66
2022/04/07 11:11:55;;;;;;;2.67;2.47;;;;;;;13.17;100.00;98562.69;5188395;28;20083;-64
2022/04/07 11:14:27;;;;;;;3.83;2.15;;;;;;;13.12;100.00;98538.47;5204681;28;20030;-67
2022/04/07 11:16:59;;;;;;;8.90;2.42;;;;;;;13.15;100.00;98516.13;5187393;28;20274;-63
2022/04/07 11:19:35;;;;;;;5.60;2.78;;;;;;;13.30;100.00;98539.94;5188156;28;20056;-63
2022/04/07 11:22:08;;;;;;;6.78;2.63;;;;;;;13.54;100.00;98549.34;5204334;28;20052;-67
2022/04/07 11:24:45;;;;;;;3.17;2.15;;;;;;;13.61;100.00;98560.44;5188200;28;20021;-67
2022/04/07 11:27:36;;;;;;;19.70;3.60;;;;;;;13.59;99.74;98603.38;5187727;28;20037;-63
2022/04/07 11:30:08;;;;;;;4.75;2.88;;;;;;;13.15;95.05;98578.44;5187696;28;20032;-68
2022/04/07 11:32:58;;;;;;;3.97;2.03;;;;;;;13.19;100.00;98592.97;5204261;28;20068;-65
2022/04/07 11:39:21;;;;;;;5.88;2.03;;;;;;;13.20;100.00;98589.13;5206316;28;20128;-68
2022/04/07 11:41:54;;;;;;;4.30;2.05;;;;;;;13.04;100.00;98588.06;5188073;28;20025;-66
2022/04/07 11:44:24;;;;;;;15.27;3.30;;;;;;;12.88;100.00;98589.75;5187515;28;20106;-67
2022/04/07 11:46:55;;;;;;;4.78;2.47;;;;;;;12.73;100.00;98585.69;5187755;28;20065;-65
2022/04/07 11:49:26;;;;;;;7.13;2.30;;;;;;;12.83;100.00;98615.13;5187814;28;20025;-65
2022/04/07 11:51:57;;;;;;;4.18;3.78;;;;;;;12.78;100.00;98618.00;5187788;28;20057;-65
2022/04/07 11:54:27;;;;;;;8.13;2.78;;;;;;;13.00;92.70;98630.47;5187377;28;20541;-64
2022/04/07 11:56:58;;;;;;;3.85;2.47;;;;;;;12.81;95.44;98620.06;5187676;28;20029;-64
2022/04/07 12:05:37;;;;;;;3.30;2.80;;;;;;;12.50;93.17;98563.47;5616049;22;20403;-92
2022/04/07 12:08:15;;;;;;;8.63;2.90;;;;;;;12.85;93.13;98648.88;5207801;28;20366;-91
2022/04/07 12:10:46;;;;;;;10.98;3.80;;;;;;;12.39;98.50;98581.22;5205103;28;20512;-93
2022/04/07 12:13:17;;;;;;;10.38;3.70;;;;;;;12.52;98.82;98553.91;5189943;28;20038;-92
2022/04/07 12:15:47;;;;;;;6.43;3.08;;;;;;;13.35;98.29;98683.44;5207983;28;20034;-92